ARG1341 SGAS-SABE
Flight info
| Callsign | ARG1341 |
|---|---|
| Flight time | 1h 25m |
| Altitude | 36000 |
| Route | ITAPE ASATI UP526 REPAM UZ103 DALAB UL793 GUA UZ129 PAGON PAGON8Q |
| Aircraft | B38M/M-SDE1FGHILORVWXY/HB1 |
Departure
| Time | 2026-05-06 13:45 |
|---|---|
| Airport | Silvio Pettirossi International Airport (SGAS) |
Arrival
| Time | 2026-05-06 15:10 |
|---|---|
| Airport | Aeroparque Jorge Newbery (SABE) |
| Time | Latitude | Longitude | Altitude | Speed | Heading |
|---|---|---|---|---|---|
| 2026-05-06 13:29 | -25.24126 | -57.51497 | 281 ft | 0 kts | 108° |
| 2026-05-06 13:37 | -25.24122 | -57.51512 | 281 ft | 3 kts | 110° |
| 2026-05-06 13:38 | -25.24112 | -57.51530 | 284 ft | 3 kts | 140° |
| 2026-05-06 13:38 | -25.24096 | -57.51539 | 284 ft | 3 kts | 168° |
| 2026-05-06 13:38 | -25.24079 | -57.51539 | 281 ft | 3 kts | 197° |
| 2026-05-06 13:38 | -25.24076 | -57.51538 | 281 ft | 0 kts | 198° |
| 2026-05-06 13:40 | -25.24092 | -57.51545 | 282 ft | 8 kts | 206° |
| 2026-05-06 13:40 | -25.24144 | -57.51585 | 281 ft | 19 kts | 213° |
| 2026-05-06 13:40 | -25.24294 | -57.51647 | 281 ft | 25 kts | 199° |
| 2026-05-06 13:40 | -25.24416 | -57.51789 | 282 ft | 27 kts | 219° |
| 2026-05-06 13:41 | -25.24604 | -57.51843 | 281 ft | 30 kts | 193° |
| 2026-05-06 13:41 | -25.24843 | -57.51901 | 282 ft | 38 kts | 192° |
| 2026-05-06 13:41 | -25.25112 | -57.51965 | 286 ft | 40 kts | 192° |
| 2026-05-06 13:41 | -25.25349 | -57.52023 | 282 ft | 33 kts | 193° |
| 2026-05-06 13:42 | -25.25476 | -57.52065 | 282 ft | 6 kts | 226° |
| 2026-05-06 13:42 | -25.25479 | -57.52069 | 283 ft | 0 kts | 234° |
| 2026-05-06 13:42 | -25.25481 | -57.52072 | 283 ft | 2 kts | 236° |
| 2026-05-06 13:42 | -25.25482 | -57.52127 | 289 ft | 13 kts | 281° |
| 2026-05-06 13:43 | -25.25475 | -57.52158 | 286 ft | 0 kts | 283° |
| 2026-05-06 13:43 | -25.25475 | -57.52159 | 286 ft | 0 kts | 283° |
| 2026-05-06 13:43 | -25.25466 | -57.52202 | 293 ft | 12 kts | 282° |
| 2026-05-06 13:44 | -25.25408 | -57.52259 | 291 ft | 8 kts | 10° |
| 2026-05-06 13:44 | -25.25377 | -57.52252 | 294 ft | 16 kts | 13° |
| 2026-05-06 13:44 | -25.25029 | -57.52165 | 286 ft | 86 kts | 12° |
| 2026-05-06 13:44 | -25.24235 | -57.51970 | 285 ft | 145 kts | 13° |
| 2026-05-06 13:45 | -25.23146 | -57.51701 | 681 ft | 165 kts | 16° |
| 2026-05-06 13:45 | -25.20895 | -57.51137 | 2374 ft | 176 kts | 9° |
| 2026-05-06 13:45 | -25.19642 | -57.50716 | 3102 ft | 204 kts | 28° |
| 2026-05-06 13:46 | -25.18714 | -57.49389 | 3924 ft | 241 kts | 65° |
| 2026-05-06 13:46 | -25.18675 | -57.47425 | 4752 ft | 278 kts | 99° |
| 2026-05-06 13:46 | -25.19717 | -57.45519 | 5659 ft | 302 kts | 135° |
| 2026-05-06 13:46 | -25.21578 | -57.44437 | 6848 ft | 308 kts | 166° |
| 2026-05-06 13:47 | -25.23740 | -57.44348 | 7797 ft | 315 kts | 189° |
| 2026-05-06 13:47 | -25.25930 | -57.44588 | 8895 ft | 317 kts | 185° |
| 2026-05-06 13:47 | -25.28116 | -57.44666 | 9951 ft | 321 kts | 181° |
| 2026-05-06 13:47 | -25.30375 | -57.44629 | 10754 ft | 331 kts | 179° |
| 2026-05-06 13:48 | -25.32734 | -57.44493 | 11348 ft | 347 kts | 177° |
| 2026-05-06 13:48 | -25.35212 | -57.44291 | 11843 ft | 365 kts | 176° |
| 2026-05-06 13:48 | -25.37814 | -57.44044 | 12253 ft | 384 kts | 176° |
| 2026-05-06 13:48 | -25.40537 | -57.43773 | 12579 ft | 402 kts | 176° |
| 2026-05-06 13:49 | -25.43343 | -57.43499 | 12912 ft | 416 kts | 176° |
| 2026-05-06 13:49 | -25.46244 | -57.43225 | 13586 ft | 418 kts | 176° |
| 2026-05-06 13:49 | -25.49155 | -57.42965 | 14223 ft | 421 kts | 176° |
| 2026-05-06 13:49 | -25.52095 | -57.42706 | 14778 ft | 424 kts | 177° |
| 2026-05-06 13:50 | -25.55060 | -57.42458 | 15345 ft | 426 kts | 179° |
| 2026-05-06 13:50 | -25.58002 | -57.42766 | 15918 ft | 424 kts | 192° |
| 2026-05-06 13:50 | -25.60880 | -57.43332 | 16426 ft | 428 kts | 192° |
| 2026-05-06 13:50 | -25.63854 | -57.43937 | 16959 ft | 430 kts | 193° |
| 2026-05-06 13:51 | -25.66767 | -57.44544 | 17503 ft | 432 kts | 193° |
| 2026-05-06 13:51 | -25.69736 | -57.45169 | 17985 ft | 435 kts | 193° |
| 2026-05-06 13:51 | -25.72721 | -57.45801 | 18476 ft | 437 kts | 193° |
| 2026-05-06 13:51 | -25.75727 | -57.46438 | 18902 ft | 439 kts | 193° |
| 2026-05-06 13:52 | -25.78697 | -57.47068 | 19323 ft | 440 kts | 193° |
| 2026-05-06 13:52 | -25.81758 | -57.47717 | 19754 ft | 442 kts | 193° |
| 2026-05-06 13:52 | -25.84743 | -57.48350 | 20155 ft | 443 kts | 193° |
| 2026-05-06 13:52 | -25.87779 | -57.48995 | 20570 ft | 445 kts | 193° |
| 2026-05-06 13:53 | -25.90841 | -57.49646 | 20953 ft | 447 kts | 193° |
| 2026-05-06 13:53 | -25.93916 | -57.50300 | 21364 ft | 449 kts | 193° |
| 2026-05-06 13:53 | -25.96956 | -57.50946 | 21756 ft | 451 kts | 193° |
| 2026-05-06 13:53 | -26.00050 | -57.51604 | 22141 ft | 453 kts | 193° |
| 2026-05-06 13:54 | -26.03151 | -57.52265 | 22511 ft | 455 kts | 193° |
| 2026-05-06 13:54 | -26.06265 | -57.52928 | 22884 ft | 457 kts | 193° |
| 2026-05-06 13:54 | -26.09441 | -57.53343 | 23232 ft | 463 kts | 183° |
| 2026-05-06 13:54 | -26.12673 | -57.53368 | 23606 ft | 464 kts | 184° |
| 2026-05-06 13:55 | -26.15893 | -57.53413 | 23883 ft | 467 kts | 183° |
| 2026-05-06 13:55 | -26.19150 | -57.53451 | 24194 ft | 468 kts | 184° |
| 2026-05-06 13:55 | -26.22421 | -57.53486 | 24522 ft | 470 kts | 184° |
| 2026-05-06 13:55 | -26.25711 | -57.53522 | 24824 ft | 472 kts | 184° |
| 2026-05-06 13:56 | -26.28998 | -57.53557 | 25145 ft | 473 kts | 184° |
| 2026-05-06 13:56 | -26.32296 | -57.53593 | 25459 ft | 475 kts | 184° |
| 2026-05-06 13:56 | -26.35613 | -57.53628 | 25777 ft | 476 kts | 184° |
| 2026-05-06 13:56 | -26.38949 | -57.53664 | 26081 ft | 478 kts | 184° |
| 2026-05-06 13:57 | -26.42281 | -57.53700 | 26395 ft | 480 kts | 185° |
| 2026-05-06 13:57 | -26.45587 | -57.53736 | 26700 ft | 481 kts | 185° |
| 2026-05-06 13:57 | -26.48949 | -57.53772 | 27006 ft | 483 kts | 185° |
| 2026-05-06 13:57 | -26.52319 | -57.53808 | 27365 ft | 483 kts | 185° |
| 2026-05-06 13:58 | -26.55683 | -57.53845 | 27825 ft | 481 kts | 185° |
| 2026-05-06 13:58 | -26.59034 | -57.53881 | 28298 ft | 480 kts | 185° |
| 2026-05-06 13:58 | -26.62365 | -57.53917 | 28792 ft | 478 kts | 186° |
| 2026-05-06 13:58 | -26.65683 | -57.53953 | 29331 ft | 476 kts | 186° |
| 2026-05-06 13:59 | -26.68995 | -57.53989 | 29853 ft | 474 kts | 186° |
| 2026-05-06 13:59 | -26.72292 | -57.54024 | 30337 ft | 472 kts | 186° |
| 2026-05-06 13:59 | -26.75524 | -57.54060 | 30779 ft | 470 kts | 187° |
| 2026-05-06 13:59 | -26.78785 | -57.54095 | 31215 ft | 468 kts | 187° |
| 2026-05-06 14:00 | -26.82039 | -57.54130 | 31686 ft | 466 kts | 187° |
| 2026-05-06 14:00 | -26.85274 | -57.54178 | 32195 ft | 462 kts | 188° |
| 2026-05-06 14:00 | -26.88485 | -57.54276 | 32739 ft | 458 kts | 189° |
| 2026-05-06 14:00 | -26.91657 | -57.54370 | 33262 ft | 454 kts | 189° |
| 2026-05-06 14:01 | -26.94816 | -57.54461 | 33771 ft | 452 kts | 189° |
| 2026-05-06 14:01 | -26.97942 | -57.54550 | 34212 ft | 449 kts | 190° |
| 2026-05-06 14:01 | -27.01071 | -57.54638 | 34593 ft | 448 kts | 190° |
| 2026-05-06 14:01 | -27.04178 | -57.54727 | 35007 ft | 445 kts | 190° |
| 2026-05-06 14:02 | -27.07276 | -57.54815 | 35380 ft | 444 kts | 190° |
| 2026-05-06 14:02 | -27.10324 | -57.54901 | 35736 ft | 442 kts | 190° |
| 2026-05-06 14:02 | -27.13399 | -57.54989 | 35992 ft | 443 kts | 190° |
| 2026-05-06 14:02 | -27.16492 | -57.55077 | 36000 ft | 443 kts | 190° |
| 2026-05-06 14:03 | -27.22673 | -57.55254 | 36001 ft | 443 kts | 190° |
| 2026-05-06 14:03 | -27.28859 | -57.55430 | 35994 ft | 444 kts | 191° |
| 2026-05-06 14:04 | -27.35008 | -57.55606 | 35999 ft | 444 kts | 191° |
| 2026-05-06 14:04 | -27.41202 | -57.55783 | 36000 ft | 444 kts | 191° |
| 2026-05-06 14:05 | -27.44225 | -57.56186 | 36000 ft | 429 kts | 202° |
| 2026-05-06 14:05 | -27.47134 | -57.56958 | 35994 ft | 431 kts | 201° |
| 2026-05-06 14:05 | -27.52997 | -57.58449 | 35999 ft | 431 kts | 201° |
| 2026-05-06 14:06 | -27.58808 | -57.59954 | 35991 ft | 431 kts | 202° |
| 2026-05-06 14:06 | -27.64671 | -57.61477 | 35993 ft | 431 kts | 202° |
| 2026-05-06 14:07 | -27.70520 | -57.62999 | 35994 ft | 431 kts | 202° |
| 2026-05-06 14:07 | -27.76365 | -57.64521 | 35993 ft | 431 kts | 202° |
| 2026-05-06 14:08 | -27.82193 | -57.66040 | 35997 ft | 431 kts | 202° |
| 2026-05-06 14:08 | -27.88006 | -57.67557 | 35988 ft | 431 kts | 202° |
| 2026-05-06 14:09 | -27.93852 | -57.69084 | 35982 ft | 431 kts | 202° |
| 2026-05-06 14:09 | -27.99697 | -57.70613 | 35983 ft | 430 kts | 202° |
| 2026-05-06 14:10 | -28.05545 | -57.72144 | 35987 ft | 430 kts | 202° |
| 2026-05-06 14:10 | -28.11364 | -57.73669 | 35983 ft | 431 kts | 202° |
| 2026-05-06 14:11 | -28.17207 | -57.75203 | 35977 ft | 431 kts | 202° |
| 2026-05-06 14:11 | -28.23072 | -57.76744 | 35977 ft | 431 kts | 202° |
| 2026-05-06 14:12 | -28.28879 | -57.78269 | 35977 ft | 431 kts | 202° |
| 2026-05-06 14:12 | -28.34740 | -57.79782 | 35978 ft | 431 kts | 202° |
| 2026-05-06 14:13 | -28.40597 | -57.81297 | 35973 ft | 431 kts | 202° |
| 2026-05-06 14:13 | -28.45460 | -57.82556 | 35974 ft | 431 kts | 202° |
| 2026-05-06 14:14 | -28.51323 | -57.84076 | 35972 ft | 431 kts | 202° |
| 2026-05-06 14:14 | -28.57188 | -57.85598 | 35971 ft | 431 kts | 202° |
| 2026-05-06 14:15 | -28.63020 | -57.87113 | 35977 ft | 431 kts | 202° |
| 2026-05-06 14:15 | -28.68883 | -57.88639 | 35967 ft | 431 kts | 202° |
| 2026-05-06 14:16 | -28.74736 | -57.90163 | 35972 ft | 431 kts | 202° |
| 2026-05-06 14:16 | -28.80569 | -57.91684 | 35976 ft | 431 kts | 203° |
| 2026-05-06 14:17 | -28.86436 | -57.93215 | 35967 ft | 431 kts | 203° |
| 2026-05-06 14:17 | -28.92257 | -57.94736 | 35964 ft | 431 kts | 203° |
| 2026-05-06 14:18 | -28.98123 | -57.96271 | 35966 ft | 432 kts | 203° |
| 2026-05-06 14:18 | -29.03995 | -57.97809 | 35969 ft | 432 kts | 203° |
| 2026-05-06 14:19 | -29.09830 | -57.99339 | 35968 ft | 432 kts | 203° |
| 2026-05-06 14:19 | -29.15702 | -58.00881 | 35967 ft | 432 kts | 203° |
| 2026-05-06 14:20 | -29.21551 | -58.02418 | 35962 ft | 433 kts | 203° |
| 2026-05-06 14:20 | -29.27431 | -58.03965 | 35965 ft | 433 kts | 203° |
| 2026-05-06 14:21 | -29.33309 | -58.05514 | 35965 ft | 433 kts | 203° |
| 2026-05-06 14:21 | -29.39153 | -58.07055 | 35964 ft | 434 kts | 203° |
| 2026-05-06 14:22 | -29.45127 | -58.08384 | 35964 ft | 438 kts | 201° |
| 2026-05-06 14:22 | -29.51133 | -58.09633 | 35963 ft | 438 kts | 201° |
| 2026-05-06 14:23 | -29.57129 | -58.10893 | 35957 ft | 438 kts | 201° |
| 2026-05-06 14:23 | -29.63093 | -58.12149 | 35958 ft | 438 kts | 201° |
| 2026-05-06 14:24 | -29.69094 | -58.13414 | 35956 ft | 438 kts | 201° |
| 2026-05-06 14:24 | -29.75096 | -58.14681 | 35953 ft | 438 kts | 201° |
| 2026-05-06 14:25 | -29.81100 | -58.15942 | 35956 ft | 439 kts | 200° |
| 2026-05-06 14:25 | -29.87137 | -58.17083 | 35949 ft | 440 kts | 200° |
| 2026-05-06 14:26 | -29.93173 | -58.18235 | 35948 ft | 440 kts | 200° |
| 2026-05-06 14:26 | -29.99175 | -58.19384 | 35948 ft | 440 kts | 200° |
| 2026-05-06 14:27 | -30.05217 | -58.20541 | 35945 ft | 440 kts | 201° |
| 2026-05-06 14:27 | -30.11275 | -58.21703 | 35945 ft | 440 kts | 201° |
| 2026-05-06 14:28 | -30.17312 | -58.22863 | 35943 ft | 440 kts | 201° |
| 2026-05-06 14:28 | -30.23364 | -58.24027 | 35948 ft | 440 kts | 201° |
| 2026-05-06 14:29 | -30.29383 | -58.25186 | 35943 ft | 440 kts | 201° |
| 2026-05-06 14:29 | -30.35439 | -58.26354 | 35940 ft | 440 kts | 201° |
| 2026-05-06 14:30 | -30.41497 | -58.27523 | 35936 ft | 440 kts | 201° |
| 2026-05-06 14:30 | -30.47504 | -58.28684 | 35937 ft | 440 kts | 201° |
| 2026-05-06 14:31 | -30.53566 | -58.29857 | 35935 ft | 440 kts | 201° |
| 2026-05-06 14:31 | -30.59613 | -58.31052 | 35932 ft | 438 kts | 202° |
| 2026-05-06 14:32 | -30.65604 | -58.32371 | 35931 ft | 438 kts | 202° |
| 2026-05-06 14:32 | -30.71613 | -58.33682 | 35932 ft | 438 kts | 202° |
| 2026-05-06 14:33 | -30.77587 | -58.34985 | 35923 ft | 438 kts | 202° |
| 2026-05-06 14:33 | -30.83594 | -58.36298 | 35924 ft | 438 kts | 202° |
| 2026-05-06 14:34 | -30.89568 | -58.37584 | 35929 ft | 440 kts | 202° |
| 2026-05-06 14:34 | -30.95614 | -58.38797 | 35922 ft | 440 kts | 202° |
| 2026-05-06 14:35 | -31.01619 | -58.40012 | 35924 ft | 440 kts | 202° |
| 2026-05-06 14:35 | -31.07665 | -58.41237 | 35922 ft | 440 kts | 202° |
| 2026-05-06 14:36 | -31.13708 | -58.42464 | 35927 ft | 440 kts | 202° |
| 2026-05-06 14:36 | -31.19757 | -58.43694 | 35928 ft | 440 kts | 202° |
| 2026-05-06 14:37 | -31.25763 | -58.44916 | 35916 ft | 440 kts | 202° |
| 2026-05-06 14:37 | -31.31815 | -58.46150 | 35920 ft | 441 kts | 202° |
| 2026-05-06 14:38 | -31.37865 | -58.47384 | 35917 ft | 441 kts | 202° |
| 2026-05-06 14:38 | -31.43932 | -58.48624 | 35916 ft | 441 kts | 202° |
| 2026-05-06 14:39 | -31.49949 | -58.49855 | 35920 ft | 442 kts | 202° |
| 2026-05-06 14:39 | -31.56026 | -58.51100 | 35918 ft | 442 kts | 202° |
| 2026-05-06 14:40 | -31.62092 | -58.52344 | 35922 ft | 442 kts | 202° |
| 2026-05-06 14:40 | -31.68163 | -58.53591 | 35912 ft | 442 kts | 202° |
| 2026-05-06 14:41 | -31.74205 | -58.54834 | 35915 ft | 443 kts | 202° |
| 2026-05-06 14:41 | -31.80284 | -58.56086 | 35919 ft | 443 kts | 202° |
| 2026-05-06 14:42 | -31.86371 | -58.57341 | 35909 ft | 443 kts | 202° |
| 2026-05-06 14:42 | -31.92421 | -58.58591 | 35911 ft | 443 kts | 202° |
| 2026-05-06 14:43 | -31.98505 | -58.59849 | 35913 ft | 443 kts | 202° |
| 2026-05-06 14:43 | -32.04558 | -58.61102 | 35910 ft | 444 kts | 202° |
| 2026-05-06 14:44 | -32.10655 | -58.62366 | 35908 ft | 444 kts | 202° |
| 2026-05-06 14:45 | -32.19766 | -58.64259 | 35902 ft | 444 kts | 201° |
| 2026-05-06 14:45 | -32.25856 | -58.65525 | 35899 ft | 444 kts | 201° |
| 2026-05-06 14:46 | -32.31955 | -58.66787 | 35898 ft | 446 kts | 200° |
| 2026-05-06 14:46 | -32.35124 | -58.66893 | 35901 ft | 466 kts | 186° |
| 2026-05-06 14:46 | -32.38369 | -58.66620 | 35880 ft | 466 kts | 188° |
| 2026-05-06 14:47 | -32.44809 | -58.66124 | 35889 ft | 467 kts | 187° |
| 2026-05-06 14:47 | -32.51307 | -58.65586 | 35890 ft | 467 kts | 187° |
| 2026-05-06 14:48 | -32.57791 | -58.65044 | 35889 ft | 467 kts | 187° |
| 2026-05-06 14:48 | -32.64256 | -58.64503 | 35885 ft | 467 kts | 187° |
| 2026-05-06 14:49 | -32.70762 | -58.63958 | 35887 ft | 467 kts | 187° |
| 2026-05-06 14:49 | -32.77198 | -58.63417 | 35571 ft | 462 kts | 187° |
| 2026-05-06 14:49 | -32.80399 | -58.63148 | 34933 ft | 461 kts | 187° |
| 2026-05-06 14:50 | -32.83610 | -58.62878 | 34190 ft | 464 kts | 186° |
| 2026-05-06 14:50 | -32.86838 | -58.62606 | 33422 ft | 466 kts | 186° |
| 2026-05-06 14:50 | -32.90084 | -58.62333 | 32658 ft | 467 kts | 185° |
| 2026-05-06 14:50 | -32.93331 | -58.62059 | 31931 ft | 467 kts | 184° |
| 2026-05-06 14:51 | -32.96580 | -58.61785 | 31197 ft | 468 kts | 184° |
| 2026-05-06 14:51 | -32.99840 | -58.61514 | 30407 ft | 469 kts | 184° |
| 2026-05-06 14:51 | -33.03045 | -58.61650 | 29330 ft | 466 kts | 193° |
| 2026-05-06 14:51 | -33.06301 | -58.62046 | 28457 ft | 468 kts | 192° |
| 2026-05-06 14:52 | -33.09532 | -58.62409 | 27822 ft | 464 kts | 192° |
| 2026-05-06 14:52 | -33.12749 | -58.62779 | 27099 ft | 461 kts | 192° |
| 2026-05-06 14:52 | -33.15906 | -58.63145 | 26383 ft | 464 kts | 192° |
| 2026-05-06 14:52 | -33.19144 | -58.63520 | 25628 ft | 469 kts | 192° |
| 2026-05-06 14:53 | -33.22416 | -58.63900 | 24938 ft | 471 kts | 192° |
| 2026-05-06 14:53 | -33.25676 | -58.64278 | 24243 ft | 468 kts | 192° |
| 2026-05-06 14:53 | -33.27822 | -58.64527 | 23787 ft | 466 kts | 192° |
| 2026-05-06 14:53 | -33.31052 | -58.64903 | 23014 ft | 464 kts | 191° |
| 2026-05-06 14:54 | -33.34264 | -58.65276 | 22259 ft | 461 kts | 191° |
| 2026-05-06 14:54 | -33.37445 | -58.65646 | 21568 ft | 456 kts | 191° |
| 2026-05-06 14:54 | -33.40585 | -58.66012 | 20899 ft | 451 kts | 191° |
| 2026-05-06 14:54 | -33.43696 | -58.66375 | 20229 ft | 447 kts | 191° |
| 2026-05-06 14:55 | -33.46779 | -58.66735 | 19556 ft | 443 kts | 191° |
| 2026-05-06 14:55 | -33.49845 | -58.67093 | 18898 ft | 440 kts | 191° |
| 2026-05-06 14:55 | -33.52884 | -58.67448 | 18237 ft | 437 kts | 191° |
| 2026-05-06 14:55 | -33.55912 | -58.67802 | 17506 ft | 435 kts | 191° |
| 2026-05-06 14:56 | -33.58917 | -58.68153 | 16841 ft | 431 kts | 191° |
| 2026-05-06 14:56 | -33.61888 | -58.68501 | 16185 ft | 427 kts | 190° |
| 2026-05-06 14:56 | -33.64794 | -58.68841 | 15546 ft | 423 kts | 190° |
| 2026-05-06 14:56 | -33.67743 | -58.69187 | 14730 ft | 425 kts | 189° |
| 2026-05-06 14:57 | -33.70678 | -58.69532 | 14093 ft | 422 kts | 189° |
| 2026-05-06 14:57 | -33.73599 | -58.69875 | 13447 ft | 419 kts | 189° |
| 2026-05-06 14:57 | -33.76501 | -58.70216 | 12766 ft | 416 kts | 189° |
| 2026-05-06 14:57 | -33.79379 | -58.70554 | 12138 ft | 413 kts | 188° |
| 2026-05-06 14:58 | -33.82222 | -58.70888 | 11557 ft | 408 kts | 188° |
| 2026-05-06 14:58 | -33.85008 | -58.71217 | 11311 ft | 394 kts | 188° |
| 2026-05-06 14:58 | -33.87694 | -58.71533 | 11101 ft | 381 kts | 188° |
| 2026-05-06 14:58 | -33.90271 | -58.71838 | 10882 ft | 370 kts | 188° |
| 2026-05-06 14:59 | -33.92798 | -58.72119 | 10653 ft | 359 kts | 187° |
| 2026-05-06 14:59 | -33.95256 | -58.72368 | 10434 ft | 348 kts | 187° |
| 2026-05-06 14:59 | -33.97635 | -58.72612 | 10263 ft | 337 kts | 187° |
| 2026-05-06 14:59 | -33.99939 | -58.72850 | 10091 ft | 326 kts | 187° |
| 2026-05-06 15:00 | -34.02147 | -58.73078 | 9881 ft | 318 kts | 187° |
| 2026-05-06 15:00 | -34.04360 | -58.73307 | 9483 ft | 317 kts | 187° |
| 2026-05-06 15:00 | -34.06557 | -58.73534 | 9073 ft | 316 kts | 187° |
| 2026-05-06 15:00 | -34.08749 | -58.73762 | 8687 ft | 314 kts | 187° |
| 2026-05-06 15:01 | -34.10896 | -58.73984 | 8321 ft | 312 kts | 187° |
| 2026-05-06 15:01 | -34.13061 | -58.74209 | 7959 ft | 310 kts | 187° |
| 2026-05-06 15:01 | -34.15203 | -58.74431 | 7607 ft | 308 kts | 187° |
| 2026-05-06 15:01 | -34.17345 | -58.74653 | 7249 ft | 307 kts | 187° |
| 2026-05-06 15:02 | -34.19473 | -58.74874 | 6892 ft | 306 kts | 187° |
| 2026-05-06 15:02 | -34.21592 | -58.75093 | 6553 ft | 304 kts | 187° |
| 2026-05-06 15:02 | -34.23705 | -58.75313 | 6188 ft | 304 kts | 187° |
| 2026-05-06 15:02 | -34.25788 | -58.75530 | 5818 ft | 303 kts | 187° |
| 2026-05-06 15:03 | -34.27890 | -58.75748 | 5459 ft | 302 kts | 187° |
| 2026-05-06 15:03 | -34.29975 | -58.75965 | 5110 ft | 300 kts | 186° |
| 2026-05-06 15:03 | -34.32048 | -58.75709 | 4733 ft | 300 kts | 160° |
| 2026-05-06 15:03 | -34.33812 | -58.74421 | 4387 ft | 294 kts | 135° |
| 2026-05-06 15:04 | -34.35229 | -58.72713 | 4170 ft | 287 kts | 132° |
| 2026-05-06 15:04 | -34.36607 | -58.71027 | 4081 ft | 276 kts | 131° |
| 2026-05-06 15:04 | -34.37932 | -58.69393 | 3967 ft | 266 kts | 131° |
| 2026-05-06 15:04 | -34.39207 | -58.67813 | 3836 ft | 257 kts | 131° |
| 2026-05-06 15:05 | -34.40429 | -58.66295 | 3732 ft | 247 kts | 131° |
| 2026-05-06 15:05 | -34.41599 | -58.64840 | 3595 ft | 234 kts | 131° |
| 2026-05-06 15:05 | -34.42704 | -58.63463 | 3447 ft | 222 kts | 130° |
| 2026-05-06 15:05 | -34.43785 | -58.62201 | 3273 ft | 211 kts | 134° |
| 2026-05-06 15:06 | -34.44806 | -58.60979 | 3111 ft | 205 kts | 127° |
| 2026-05-06 15:06 | -34.45706 | -58.59671 | 3005 ft | 203 kts | 122° |
| 2026-05-06 15:06 | -34.46553 | -58.58293 | 2918 ft | 203 kts | 120° |
| 2026-05-06 15:06 | -34.47331 | -58.56949 | 2687 ft | 193 kts | 118° |
| 2026-05-06 15:07 | -34.48069 | -58.55640 | 2482 ft | 178 kts | 117° |
| 2026-05-06 15:07 | -34.48735 | -58.54445 | 2263 ft | 170 kts | 117° |
| 2026-05-06 15:07 | -34.49395 | -58.53263 | 2046 ft | 165 kts | 117° |
| 2026-05-06 15:07 | -34.50033 | -58.52121 | 1827 ft | 163 kts | 117° |
| 2026-05-06 15:08 | -34.50662 | -58.50993 | 1631 ft | 160 kts | 116° |
| 2026-05-06 15:08 | -34.51273 | -58.49899 | 1444 ft | 156 kts | 116° |
| 2026-05-06 15:08 | -34.51871 | -58.48821 | 1251 ft | 153 kts | 119° |
| 2026-05-06 15:08 | -34.52463 | -58.47755 | 1042 ft | 151 kts | 118° |
| 2026-05-06 15:09 | -34.53055 | -58.46709 | 857 ft | 149 kts | 118° |
| 2026-05-06 15:09 | -34.53623 | -58.45688 | 668 ft | 144 kts | 121° |
| 2026-05-06 15:09 | -34.54174 | -58.44688 | 465 ft | 142 kts | 124° |
| 2026-05-06 15:09 | -34.54734 | -58.43702 | 340 ft | 139 kts | 121° |
| 2026-05-06 15:10 | -34.55256 | -58.42747 | 85 ft | 131 kts | 122° |
| 2026-05-06 15:10 | -34.55714 | -58.41948 | 29 ft | 83 kts | 124° |
| 2026-05-06 15:10 | -34.55947 | -58.41534 | 27 ft | 44 kts | 124° |
| 2026-05-06 15:10 | -34.56023 | -58.41368 | 29 ft | 7 kts | 78° |
| 2026-05-06 15:11 | -34.55997 | -58.41337 | 29 ft | 7 kts | 26° |
| 2026-05-06 15:11 | -34.55921 | -58.41297 | 29 ft | 15 kts | 9° |
| 2026-05-06 15:11 | -34.55840 | -58.41283 | 29 ft | 5 kts | 339° |
| 2026-05-06 15:11 | -34.55811 | -58.41329 | 29 ft | 11 kts | 300° |
| 2026-05-06 15:12 | -34.55776 | -58.41385 | 29 ft | 4 kts | 334° |
| 2026-05-06 15:12 | -34.55759 | -58.41384 | 29 ft | 2 kts | 15° |
| 2026-05-06 15:12 | -34.55744 | -58.41371 | 29 ft | 0 kts | 39° |